sensor_id;sensor_type;location;lat;lon;timestamp;P1;durP1;ratioP1;P2;durP2;ratioP2
7365;SDS011;3723;52.220;8.792;2023-07-28T00:02:21;28.20;;;2.90;;
7365;SDS011;3723;52.220;8.792;2023-07-28T00:04:49;29.53;;;3.60;;
7365;SDS011;3723;52.220;8.792;2023-07-28T00:07:16;27.60;;;1.83;;
7365;SDS011;3723;52.220;8.792;2023-07-28T00:09:45;27.47;;;1.60;;
7365;SDS011;3723;52.220;8.792;2023-07-28T00:12:14;28.27;;;1.73;;
7365;SDS011;3723;52.220;8.792;2023-07-28T00:14:41;35.53;;;3.30;;
7365;SDS011;3723;52.220;8.792;2023-07-28T00:17:08;29.50;;;4.17;;
7365;SDS011;3723;52.220;8.792;2023-07-28T00:22:44;27.90;;;1.10;;
7365;SDS011;3723;52.220;8.792;2023-07-28T00:25:11;27.93;;;1.00;;
7365;SDS011;3723;52.220;8.792;2023-07-28T00:27:38;27.80;;;1.10;;
7365;SDS011;3723;52.220;8.792;2023-07-28T00:30:05;27.50;;;1.23;;
7365;SDS011;3723;52.220;8.792;2023-07-28T00:32:33;28.40;;;1.37;;
7365;SDS011;3723;52.220;8.792;2023-07-28T00:35:00;28.87;;;1.30;;
7365;SDS011;3723;52.220;8.792;2023-07-28T00:37:28;29.80;;;2.53;;
7365;SDS011;3723;52.220;8.792;2023-07-28T00:40:01;29.03;;;1.40;;
7365;SDS011;3723;52.220;8.792;2023-07-28T00:42:28;27.63;;;1.20;;
7365;SDS011;3723;52.220;8.792;2023-07-28T00:44:55;27.17;;;1.70;;
7365;SDS011;3723;52.220;8.792;2023-07-28T00:47:26;29.97;;;3.30;;
7365;SDS011;3723;52.220;8.792;2023-07-28T00:49:53;29.90;;;3.70;;
7365;SDS011;3723;52.220;8.792;2023-07-28T00:52:20;27.07;;;1.03;;
7365;SDS011;3723;52.220;8.792;2023-07-28T00:54:48;29.33;;;1.53;;
7365;SDS011;3723;52.220;8.792;2023-07-28T00:57:15;28.30;;;1.50;;
7365;SDS011;3723;52.220;8.792;2023-07-28T00:59:43;28.70;;;1.30;;
7365;SDS011;3723;52.220;8.792;2023-07-28T01:02:13;27.53;;;1.00;;
7365;SDS011;3723;52.220;8.792;2023-07-28T01:04:40;30.53;;;1.37;;
7365;SDS011;3723;52.220;8.792;2023-07-28T01:07:09;32.13;;;1.40;;
7365;SDS011;3723;52.220;8.792;2023-07-28T01:09:40;29.00;;;0.97;;
7365;SDS011;3723;52.220;8.792;2023-07-28T01:12:12;28.67;;;1.33;;
7365;SDS011;3723;52.220;8.792;2023-07-28T01:14:39;29.43;;;1.00;;
7365;SDS011;3723;52.220;8.792;2023-07-28T01:17:06;29.20;;;1.10;;
7365;SDS011;3723;52.220;8.792;2023-07-28T01:19:33;30.80;;;1.10;;
7365;SDS011;3723;52.220;8.792;2023-07-28T01:22:04;30.73;;;1.60;;
7365;SDS011;3723;52.220;8.792;2023-07-28T01:24:46;31.30;;;1.20;;
7365;SDS011;3723;52.220;8.792;2023-07-28T01:27:19;28.93;;;2.03;;
7365;SDS011;3723;52.220;8.792;2023-07-28T01:29:47;27.70;;;2.60;;
7365;SDS011;3723;52.220;8.792;2023-07-28T01:32:14;27.37;;;2.60;;
7365;SDS011;3723;52.220;8.792;2023-07-28T01:34:41;27.67;;;1.40;;
7365;SDS011;3723;52.220;8.792;2023-07-28T01:37:08;29.93;;;1.50;;
7365;SDS011;3723;52.220;8.792;2023-07-28T01:39:34;28.90;;;1.67;;
7365;SDS011;3723;52.220;8.792;2023-07-28T01:44:51;27.47;;;1.00;;
7365;SDS011;3723;52.220;8.792;2023-07-28T01:47:35;29.47;;;1.27;;
7365;SDS011;3723;52.220;8.792;2023-07-28T01:50:02;30.67;;;1.30;;
7365;SDS011;3723;52.220;8.792;2023-07-28T01:52:29;29.60;;;1.13;;
7365;SDS011;3723;52.220;8.792;2023-07-28T01:54:56;29.20;;;1.10;;
7365;SDS011;3723;52.220;8.792;2023-07-28T01:57:25;30.30;;;1.10;;
7365;SDS011;3723;52.220;8.792;2023-07-28T01:59:52;29.67;;;1.03;;
7365;SDS011;3723;52.220;8.792;2023-07-28T02:02:20;28.47;;;1.03;;
7365;SDS011;3723;52.220;8.792;2023-07-28T02:04:47;28.60;;;1.90;;
7365;SDS011;3723;52.220;8.792;2023-07-28T02:07:14;27.60;;;1.27;;
7365;SDS011;3723;52.220;8.792;2023-07-28T02:09:42;28.10;;;1.23;;
7365;SDS011;3723;52.220;8.792;2023-07-28T02:15:04;27.33;;;1.40;;
7365;SDS011;3723;52.220;8.792;2023-07-28T02:17:32;28.87;;;3.80;;
7365;SDS011;3723;52.220;8.792;2023-07-28T02:23:21;29.90;;;4.53;;
7365;SDS011;3723;52.220;8.792;2023-07-28T02:26:06;30.37;;;5.10;;
7365;SDS011;3723;52.220;8.792;2023-07-28T02:28:34;33.37;;;5.57;;
7365;SDS011;3723;52.220;8.792;2023-07-28T02:31:10;30.70;;;4.10;;
7365;SDS011;3723;52.220;8.792;2023-07-28T02:33:37;31.53;;;5.30;;
7365;SDS011;3723;52.220;8.792;2023-07-28T02:36:04;34.10;;;6.57;;
7365;SDS011;3723;52.220;8.792;2023-07-28T02:38:31;35.30;;;7.37;;
7365;SDS011;3723;52.220;8.792;2023-07-28T02:40:58;35.57;;;7.80;;
7365;SDS011;3723;52.220;8.792;2023-07-28T02:43:25;36.17;;;7.57;;
7365;SDS011;3723;52.220;8.792;2023-07-28T02:45:54;36.50;;;8.67;;
7365;SDS011;3723;52.220;8.792;2023-07-28T02:48:21;38.00;;;8.83;;
7365;SDS011;3723;52.220;8.792;2023-07-28T02:50:49;36.37;;;8.20;;
7365;SDS011;3723;52.220;8.792;2023-07-28T02:56:38;34.67;;;5.17;;
7365;SDS011;3723;52.220;8.792;2023-07-28T02:59:05;36.17;;;8.50;;
7365;SDS011;3723;52.220;8.792;2023-07-28T03:01:33;35.73;;;7.17;;
7365;SDS011;3723;52.220;8.792;2023-07-28T03:06:53;33.40;;;5.80;;
7365;SDS011;3723;52.220;8.792;2023-07-28T03:09:38;34.57;;;4.53;;
7365;SDS011;3723;52.220;8.792;2023-07-28T03:12:05;33.27;;;6.30;;
7365;SDS011;3723;52.220;8.792;2023-07-28T03:14:32;33.67;;;5.97;;
7365;SDS011;3723;52.220;8.792;2023-07-28T03:17:00;40.50;;;8.77;;
7365;SDS011;3723;52.220;8.792;2023-07-28T03:19:28;39.80;;;9.30;;
7365;SDS011;3723;52.220;8.792;2023-07-28T03:21:55;38.70;;;8.93;;
7365;SDS011;3723;52.220;8.792;2023-07-28T03:24:21;40.17;;;9.37;;
7365;SDS011;3723;52.220;8.792;2023-07-28T03:26:48;43.80;;;10.57;;
7365;SDS011;3723;52.220;8.792;2023-07-28T03:29:15;40.03;;;9.27;;
7365;SDS011;3723;52.220;8.792;2023-07-28T03:31:43;39.67;;;7.63;;
7365;SDS011;3723;52.220;8.792;2023-07-28T03:34:12;38.77;;;8.50;;
7365;SDS011;3723;52.220;8.792;2023-07-28T03:36:40;39.43;;;9.53;;
7365;SDS011;3723;52.220;8.792;2023-07-28T03:42:02;38.93;;;8.60;;
7365;SDS011;3723;52.220;8.792;2023-07-28T03:44:34;35.43;;;6.80;;
7365;SDS011;3723;52.220;8.792;2023-07-28T03:47:02;35.37;;;6.87;;
7365;SDS011;3723;52.220;8.792;2023-07-28T03:49:37;37.07;;;8.50;;
7365;SDS011;3723;52.220;8.792;2023-07-28T03:52:04;36.90;;;7.57;;
7365;SDS011;3723;52.220;8.792;2023-07-28T03:54:47;35.80;;;7.93;;
7365;SDS011;3723;52.220;8.792;2023-07-28T03:57:14;34.43;;;5.80;;
7365;SDS011;3723;52.220;8.792;2023-07-28T03:59:41;34.10;;;5.60;;
7365;SDS011;3723;52.220;8.792;2023-07-28T04:02:20;34.87;;;5.60;;
7365;SDS011;3723;52.220;8.792;2023-07-28T04:04:53;33.17;;;5.23;;
7365;SDS011;3723;52.220;8.792;2023-07-28T04:07:21;35.30;;;6.80;;
7365;SDS011;3723;52.220;8.792;2023-07-28T04:09:47;35.60;;;7.13;;
7365;SDS011;3723;52.220;8.792;2023-07-28T04:12:14;38.40;;;8.77;;
7365;SDS011;3723;52.220;8.792;2023-07-28T04:14:41;41.13;;;9.63;;
7365;SDS011;3723;52.220;8.792;2023-07-28T04:17:08;39.73;;;9.20;;
7365;SDS011;3723;52.220;8.792;2023-07-28T04:19:36;40.27;;;9.70;;
7365;SDS011;3723;52.220;8.792;2023-07-28T04:22:05;40.47;;;9.90;;
7365;SDS011;3723;52.220;8.792;2023-07-28T04:24:32;42.00;;;9.47;;
7365;SDS011;3723;52.220;8.792;2023-07-28T04:26:59;41.07;;;10.70;;
7365;SDS011;3723;52.220;8.792;2023-07-28T04:29:26;40.97;;;9.37;;
7365;SDS011;3723;52.220;8.792;2023-07-28T04:31:53;41.97;;;8.70;;
7365;SDS011;3723;52.220;8.792;2023-07-28T04:34:20;43.70;;;10.60;;
7365;SDS011;3723;52.220;8.792;2023-07-28T04:36:47;42.60;;;10.30;;
7365;SDS011;3723;52.220;8.792;2023-07-28T04:39:15;40.27;;;10.90;;
7365;SDS011;3723;52.220;8.792;2023-07-28T04:44:31;35.97;;;7.40;;
7365;SDS011;3723;52.220;8.792;2023-07-28T04:47:07;36.77;;;8.57;;
7365;SDS011;3723;52.220;8.792;2023-07-28T04:49:33;40.27;;;8.80;;
7365;SDS011;3723;52.220;8.792;2023-07-28T04:52:00;39.20;;;10.20;;
7365;SDS011;3723;52.220;8.792;2023-07-28T04:57:15;38.90;;;9.80;;
7365;SDS011;3723;52.220;8.792;2023-07-28T04:59:43;33.50;;;6.70;;
7365;SDS011;3723;52.220;8.792;2023-07-28T05:05:28;31.77;;;5.10;;
7365;SDS011;3723;52.220;8.792;2023-07-28T05:07:55;31.17;;;5.63;;
7365;SDS011;3723;52.220;8.792;2023-07-28T05:10:23;32.97;;;6.53;;
7365;SDS011;3723;52.220;8.792;2023-07-28T05:12:56;28.47;;;2.73;;
7365;SDS011;3723;52.220;8.792;2023-07-28T05:15:26;30.53;;;1.83;;
7365;SDS011;3723;52.220;8.792;2023-07-28T05:17:53;30.07;;;1.43;;
7365;SDS011;3723;52.220;8.792;2023-07-28T05:20:20;29.57;;;1.30;;
7365;SDS011;3723;52.220;8.792;2023-07-28T05:22:47;33.20;;;1.30;;
7365;SDS011;3723;52.220;8.792;2023-07-28T05:25:15;37.63;;;1.50;;
7365;SDS011;3723;52.220;8.792;2023-07-28T05:27:43;33.70;;;1.30;;
7365;SDS011;3723;52.220;8.792;2023-07-28T05:30:11;30.40;;;1.43;;
7365;SDS011;3723;52.220;8.792;2023-07-28T05:32:37;30.73;;;1.40;;
7365;SDS011;3723;52.220;8.792;2023-07-28T05:35:05;29.53;;;1.40;;
7365;SDS011;3723;52.220;8.792;2023-07-28T05:37:51;28.90;;;1.10;;
7365;SDS011;3723;52.220;8.792;2023-07-28T05:40:19;29.27;;;1.50;;
7365;SDS011;3723;52.220;8.792;2023-07-28T05:43:06;30.73;;;2.00;;
7365;SDS011;3723;52.220;8.792;2023-07-28T05:45:34;28.90;;;1.30;;
7365;SDS011;3723;52.220;8.792;2023-07-28T05:50:47;29.60;;;1.40;;
7365;SDS011;3723;52.220;8.792;2023-07-28T05:53:13;31.57;;;1.10;;
7365;SDS011;3723;52.220;8.792;2023-07-28T05:55:40;31.40;;;1.30;;
7365;SDS011;3723;52.220;8.792;2023-07-28T05:58:08;28.70;;;1.10;;
7365;SDS011;3723;52.220;8.792;2023-07-28T06:00:36;28.67;;;2.00;;
7365;SDS011;3723;52.220;8.792;2023-07-28T06:03:05;29.67;;;2.00;;
7365;SDS011;3723;52.220;8.792;2023-07-28T06:05:32;29.20;;;2.23;;
7365;SDS011;3723;52.220;8.792;2023-07-28T06:10:52;28.70;;;1.30;;
7365;SDS011;3723;52.220;8.792;2023-07-28T06:13:21;28.00;;;1.63;;
7365;SDS011;3723;52.220;8.792;2023-07-28T06:15:48;28.23;;;1.63;;
7365;SDS011;3723;52.220;8.792;2023-07-28T06:18:14;29.73;;;2.63;;
7365;SDS011;3723;52.220;8.792;2023-07-28T06:20:42;30.70;;;1.50;;
7365;SDS011;3723;52.220;8.792;2023-07-28T06:23:09;32.70;;;1.30;;
7365;SDS011;3723;52.220;8.792;2023-07-28T06:25:36;40.50;;;2.20;;
7365;SDS011;3723;52.220;8.792;2023-07-28T06:28:03;42.10;;;2.03;;
7365;SDS011;3723;52.220;8.792;2023-07-28T06:30:31;53.60;;;2.80;;
7365;SDS011;3723;52.220;8.792;2023-07-28T06:32:58;64.77;;;9.30;;
7365;SDS011;3723;52.220;8.792;2023-07-28T06:35:25;69.27;;;15.30;;
7365;SDS011;3723;52.220;8.792;2023-07-28T06:37:53;72.07;;;15.30;;
7365;SDS011;3723;52.220;8.792;2023-07-28T06:40:19;83.30;;;12.33;;
7365;SDS011;3723;52.220;8.792;2023-07-28T06:42:46;103.37;;;51.13;;
7365;SDS011;3723;52.220;8.792;2023-07-28T06:48:41;86.90;;;18.47;;
7365;SDS011;3723;52.220;8.792;2023-07-28T06:54:30;114.50;;;62.97;;
7365;SDS011;3723;52.220;8.792;2023-07-28T06:56:57;91.07;;;33.60;;
7365;SDS011;3723;52.220;8.792;2023-07-28T06:59:24;75.87;;;20.73;;
7365;SDS011;3723;52.220;8.792;2023-07-28T07:01:51;102.23;;;47.53;;
7365;SDS011;3723;52.220;8.792;2023-07-28T07:04:20;102.73;;;49.13;;
7365;SDS011;3723;52.220;8.792;2023-07-28T07:06:47;94.70;;;44.40;;
7365;SDS011;3723;52.220;8.792;2023-07-28T07:09:14;116.33;;;66.47;;
7365;SDS011;3723;52.220;8.792;2023-07-28T07:11:40;204.07;;;185.00;;
7365;SDS011;3723;52.220;8.792;2023-07-28T07:14:08;144.93;;;130.40;;
7365;SDS011;3723;52.220;8.792;2023-07-28T07:16:35;66.80;;;9.23;;
7365;SDS011;3723;52.220;8.792;2023-07-28T07:19:02;81.40;;;33.40;;
7365;SDS011;3723;52.220;8.792;2023-07-28T07:21:31;61.60;;;3.93;;
7365;SDS011;3723;52.220;8.792;2023-07-28T07:23:58;70.10;;;10.97;;
7365;SDS011;3723;52.220;8.792;2023-07-28T07:26:27;73.67;;;9.20;;
7365;SDS011;3723;52.220;8.792;2023-07-28T07:29:03;75.20;;;15.60;;
7365;SDS011;3723;52.220;8.792;2023-07-28T07:31:30;77.10;;;13.90;;
7365;SDS011;3723;52.220;8.792;2023-07-28T07:33:59;86.07;;;15.07;;
7365;SDS011;3723;52.220;8.792;2023-07-28T07:36:30;128.23;;;73.73;;
7365;SDS011;3723;52.220;8.792;2023-07-28T07:38:58;83.13;;;14.37;;
7365;SDS011;3723;52.220;8.792;2023-07-28T07:41:25;87.13;;;16.50;;
7365;SDS011;3723;52.220;8.792;2023-07-28T07:43:53;83.10;;;12.97;;
7365;SDS011;3723;52.220;8.792;2023-07-28T07:46:20;82.00;;;13.13;;
7365;SDS011;3723;52.220;8.792;2023-07-28T07:48:49;80.37;;;17.67;;
7365;SDS011;3723;52.220;8.792;2023-07-28T07:51:16;79.43;;;10.20;;
7365;SDS011;3723;52.220;8.792;2023-07-28T07:53:45;87.80;;;18.17;;
7365;SDS011;3723;52.220;8.792;2023-07-28T07:56:12;98.33;;;32.40;;
7365;SDS011;3723;52.220;8.792;2023-07-28T07:58:39;151.93;;;120.87;;
7365;SDS011;3723;52.220;8.792;2023-07-28T08:01:06;174.93;;;155.53;;
7365;SDS011;3723;52.220;8.792;2023-07-28T08:03:33;170.60;;;147.67;;
7365;SDS011;3723;52.220;8.792;2023-07-28T08:06:01;287.40;;;261.03;;
7365;SDS011;3723;52.220;8.792;2023-07-28T08:08:28;299.43;;;272.37;;
7365;SDS011;3723;52.220;8.792;2023-07-28T08:10:57;167.50;;;143.67;;
7365;SDS011;3723;52.220;8.792;2023-07-28T08:13:25;295.83;;;269.73;;
7365;SDS011;3723;52.220;8.792;2023-07-28T08:15:53;181.40;;;148.33;;
7365;SDS011;3723;52.220;8.792;2023-07-28T08:18:20;220.43;;;195.83;;
7365;SDS011;3723;52.220;8.792;2023-07-28T08:20:48;171.07;;;117.90;;
7365;SDS011;3723;52.220;8.792;2023-07-28T08:23:15;170.53;;;119.33;;
7365;SDS011;3723;52.220;8.792;2023-07-28T08:25:42;151.83;;;82.90;;
7365;SDS011;3723;52.220;8.792;2023-07-28T08:28:10;271.27;;;244.53;;
7365;SDS011;3723;52.220;8.792;2023-07-28T08:30:37;233.90;;;208.93;;
7365;SDS011;3723;52.220;8.792;2023-07-28T08:33:07;415.20;;;381.67;;
7365;SDS011;3723;52.220;8.792;2023-07-28T08:35:34;478.53;;;441.63;;
7365;SDS011;3723;52.220;8.792;2023-07-28T08:38:00;474.70;;;436.83;;
7365;SDS011;3723;52.220;8.792;2023-07-28T08:40:28;623.33;;;575.90;;
7365;SDS011;3723;52.220;8.792;2023-07-28T08:42:55;601.77;;;555.07;;
7365;SDS011;3723;52.220;8.792;2023-07-28T08:45:23;545.97;;;503.10;;
7365;SDS011;3723;52.220;8.792;2023-07-28T08:47:50;655.37;;;605.30;;
7365;SDS011;3723;52.220;8.792;2023-07-28T08:50:17;650.57;;;600.67;;
7365;SDS011;3723;52.220;8.792;2023-07-28T08:52:46;638.60;;;589.63;;
7365;SDS011;3723;52.220;8.792;2023-07-28T08:55:14;303.27;;;277.17;;
7365;SDS011;3723;52.220;8.792;2023-07-28T08:57:42;376.37;;;345.33;;
7365;SDS011;3723;52.220;8.792;2023-07-28T09:00:09;563.47;;;519.90;;
7365;SDS011;3723;52.220;8.792;2023-07-28T09:02:40;623.47;;;575.47;;
7365;SDS011;3723;52.220;8.792;2023-07-28T09:05:08;212.50;;;178.93;;
7365;SDS011;3723;52.220;8.792;2023-07-28T09:07:43;140.97;;;55.50;;
7365;SDS011;3723;52.220;8.792;2023-07-28T09:10:10;306.93;;;279.80;;
7365;SDS011;3723;52.220;8.792;2023-07-28T09:12:44;229.73;;;207.10;;
7365;SDS011;3723;52.220;8.792;2023-07-28T09:15:11;334.80;;;306.73;;
7365;SDS011;3723;52.220;8.792;2023-07-28T09:17:42;345.57;;;316.80;;
7365;SDS011;3723;52.220;8.792;2023-07-28T09:20:12;127.00;;;37.53;;
7365;SDS011;3723;52.220;8.792;2023-07-28T09:22:41;165.97;;;113.37;;
7365;SDS011;3723;52.220;8.792;2023-07-28T09:25:12;587.37;;;541.77;;
7365;SDS011;3723;52.220;8.792;2023-07-28T09:27:39;619.00;;;571.17;;
7365;SDS011;3723;52.220;8.792;2023-07-28T09:30:07;581.27;;;535.87;;
7365;SDS011;3723;52.220;8.792;2023-07-28T09:32:34;621.00;;;573.13;;
7365;SDS011;3723;52.220;8.792;2023-07-28T09:35:08;461.67;;;426.07;;
7365;SDS011;3723;52.220;8.792;2023-07-28T09:37:36;629.27;;;581.03;;
7365;SDS011;3723;52.220;8.792;2023-07-28T09:40:06;595.90;;;549.30;;
7365;SDS011;3723;52.220;8.792;2023-07-28T09:42:36;539.03;;;495.73;;
7365;SDS011;3723;52.220;8.792;2023-07-28T09:45:04;447.70;;;410.70;;
7365;SDS011;3723;52.220;8.792;2023-07-28T09:47:33;189.10;;;156.57;;
7365;SDS011;3723;52.220;8.792;2023-07-28T09:50:01;388.63;;;354.57;;
7365;SDS011;3723;52.220;8.792;2023-07-28T09:52:33;162.90;;;103.80;;
7365;SDS011;3723;52.220;8.792;2023-07-28T09:55:04;226.77;;;203.20;;
7365;SDS011;3723;52.220;8.792;2023-07-28T09:57:34;141.50;;;60.80;;
7365;SDS011;3723;52.220;8.792;2023-07-28T10:00:07;184.57;;;144.93;;
7365;SDS011;3723;52.220;8.792;2023-07-28T10:02:37;211.37;;;180.93;;
7365;SDS011;3723;52.220;8.792;2023-07-28T10:05:09;230.27;;;206.87;;
7365;SDS011;3723;52.220;8.792;2023-07-28T10:07:38;520.70;;;479.60;;
7365;SDS011;3723;52.220;8.792;2023-07-28T10:10:07;636.87;;;588.07;;
7365;SDS011;3723;52.220;8.792;2023-07-28T10:15:57;605.07;;;557.90;;
7365;SDS011;3723;52.220;8.792;2023-07-28T10:18:29;574.13;;;529.93;;
7365;SDS011;3723;52.220;8.792;2023-07-28T10:20:56;635.57;;;586.70;;
7365;SDS011;3723;52.220;8.792;2023-07-28T10:23:33;636.60;;;587.63;;
7365;SDS011;3723;52.220;8.792;2023-07-28T10:26:01;548.00;;;504.37;;
7365;SDS011;3723;52.220;8.792;2023-07-28T10:28:31;151.77;;;95.57;;
7365;SDS011;3723;52.220;8.792;2023-07-28T10:31:03;126.60;;;41.03;;
7365;SDS011;3723;52.220;8.792;2023-07-28T10:33:31;278.50;;;252.73;;
7365;SDS011;3723;52.220;8.792;2023-07-28T10:35:59;124.60;;;40.40;;
7365;SDS011;3723;52.220;8.792;2023-07-28T10:38:42;276.13;;;250.63;;
7365;SDS011;3723;52.220;8.792;2023-07-28T10:41:14;314.40;;;287.00;;
7365;SDS011;3723;52.220;8.792;2023-07-28T10:43:43;303.97;;;277.20;;
7365;SDS011;3723;52.220;8.792;2023-07-28T10:46:11;185.63;;;152.70;;
7365;SDS011;3723;52.220;8.792;2023-07-28T10:48:42;171.20;;;119.00;;
7365;SDS011;3723;52.220;8.792;2023-07-28T10:51:10;123.23;;;37.00;;
7365;SDS011;3723;52.220;8.792;2023-07-28T10:53:37;185.10;;;150.80;;
7365;SDS011;3723;52.220;8.792;2023-07-28T10:56:06;537.03;;;495.13;;
7365;SDS011;3723;52.220;8.792;2023-07-28T10:58:40;508.20;;;466.83;;
7365;SDS011;3723;52.220;8.792;2023-07-28T11:01:06;456.43;;;419.87;;
7365;SDS011;3723;52.220;8.792;2023-07-28T11:03:33;540.90;;;499.20;;
7365;SDS011;3723;52.220;8.792;2023-07-28T11:06:00;301.00;;;275.60;;
7365;SDS011;3723;52.220;8.792;2023-07-28T11:08:29;88.83;;;12.87;;
7365;SDS011;3723;52.220;8.792;2023-07-28T11:11:08;82.80;;;6.77;;
7365;SDS011;3723;52.220;8.792;2023-07-28T11:13:40;95.93;;;26.90;;
7365;SDS011;3723;52.220;8.792;2023-07-28T11:16:07;101.70;;;31.20;;
7365;SDS011;3723;52.220;8.792;2023-07-28T11:18:35;117.87;;;52.47;;
7365;SDS011;3723;52.220;8.792;2023-07-28T11:21:02;123.40;;;60.27;;
7365;SDS011;3723;52.220;8.792;2023-07-28T11:23:29;106.90;;;26.70;;
7365;SDS011;3723;52.220;8.792;2023-07-28T11:25:59;119.87;;;53.20;;
7365;SDS011;3723;52.220;8.792;2023-07-28T11:28:27;105.17;;;35.90;;
7365;SDS011;3723;52.220;8.792;2023-07-28T11:30:54;85.27;;;5.27;;
7365;SDS011;3723;52.220;8.792;2023-07-28T11:33:22;422.10;;;388.13;;
7365;SDS011;3723;52.220;8.792;2023-07-28T11:35:50;459.83;;;424.33;;
7365;SDS011;3723;52.220;8.792;2023-07-28T11:38:17;559.90;;;516.83;;
7365;SDS011;3723;52.220;8.792;2023-07-28T11:40:44;365.30;;;336.63;;
7365;SDS011;3723;52.220;8.792;2023-07-28T11:43:12;313.70;;;286.93;;
7365;SDS011;3723;52.220;8.792;2023-07-28T11:45:41;500.80;;;462.53;;
7365;SDS011;3723;52.220;8.792;2023-07-28T11:48:11;612.03;;;564.83;;
7365;SDS011;3723;52.220;8.792;2023-07-28T11:50:43;730.23;;;675.53;;
7365;SDS011;3723;52.220;8.792;2023-07-28T11:53:10;481.97;;;441.97;;
7365;SDS011;3723;52.220;8.792;2023-07-28T11:55:42;654.90;;;604.50;;
7365;SDS011;3723;52.220;8.792;2023-07-28T11:58:09;490.67;;;453.07;;
7365;SDS011;3723;52.220;8.792;2023-07-28T12:00:39;83.10;;;4.47;;
7365;SDS011;3723;52.220;8.792;2023-07-28T12:03:11;86.87;;;5.83;;
7365;SDS011;3723;52.220;8.792;2023-07-28T12:05:39;102.57;;;33.97;;
7365;SDS011;3723;52.220;8.792;2023-07-28T12:08:33;102.53;;;33.23;;
7365;SDS011;3723;52.220;8.792;2023-07-28T12:11:00;84.97;;;4.80;;
7365;SDS011;3723;52.220;8.792;2023-07-28T12:13:27;96.97;;;27.87;;
7365;SDS011;3723;52.220;8.792;2023-07-28T12:15:58;104.40;;;37.43;;
7365;SDS011;3723;52.220;8.792;2023-07-28T12:18:29;109.27;;;42.60;;
7365;SDS011;3723;52.220;8.792;2023-07-28T12:20:59;121.83;;;60.53;;
7365;SDS011;3723;52.220;8.792;2023-07-28T12:23:27;116.67;;;53.70;;
7365;SDS011;3723;52.220;8.792;2023-07-28T12:25:54;114.80;;;41.80;;
7365;SDS011;3723;52.220;8.792;2023-07-28T12:28:23;107.00;;;27.20;;
7365;SDS011;3723;52.220;8.792;2023-07-28T12:30:50;116.67;;;49.10;;
7365;SDS011;3723;52.220;8.792;2023-07-28T12:33:27;122.80;;;59.43;;
7365;SDS011;3723;52.220;8.792;2023-07-28T12:35:54;106.90;;;38.00;;
7365;SDS011;3723;52.220;8.792;2023-07-28T12:38:21;86.37;;;7.40;;
7365;SDS011;3723;52.220;8.792;2023-07-28T12:41:01;85.17;;;5.37;;
7365;SDS011;3723;52.220;8.792;2023-07-28T12:43:27;82.97;;;4.43;;
7365;SDS011;3723;52.220;8.792;2023-07-28T12:45:55;84.37;;;4.40;;
7365;SDS011;3723;52.220;8.792;2023-07-28T12:48:27;103.20;;;38.97;;
7365;SDS011;3723;52.220;8.792;2023-07-28T12:50:54;93.07;;;20.10;;
7365;SDS011;3723;52.220;8.792;2023-07-28T12:53:21;84.77;;;5.40;;
7365;SDS011;3723;52.220;8.792;2023-07-28T12:55:48;138.47;;;96.77;;
7365;SDS011;3723;52.220;8.792;2023-07-28T12:58:15;611.50;;;564.33;;
7365;SDS011;3723;52.220;8.792;2023-07-28T13:00:45;649.20;;;599.07;;
7365;SDS011;3723;52.220;8.792;2023-07-28T13:03:34;319.07;;;289.70;;
7365;SDS011;3723;52.220;8.792;2023-07-28T13:06:06;615.00;;;566.90;;
7365;SDS011;3723;52.220;8.792;2023-07-28T13:08:33;560.27;;;516.93;;
7365;SDS011;3723;52.220;8.792;2023-07-28T13:11:00;83.50;;;6.27;;
7365;SDS011;3723;52.220;8.792;2023-07-28T13:13:28;103.00;;;37.23;;
7365;SDS011;3723;52.220;8.792;2023-07-28T13:15:55;109.70;;;40.27;;
7365;SDS011;3723;52.220;8.792;2023-07-28T13:18:23;101.80;;;34.80;;
7365;SDS011;3723;52.220;8.792;2023-07-28T13:20:52;101.83;;;33.83;;
7365;SDS011;3723;52.220;8.792;2023-07-28T13:23:21;103.37;;;37.80;;
7365;SDS011;3723;52.220;8.792;2023-07-28T13:25:49;118.17;;;56.30;;
7365;SDS011;3723;52.220;8.792;2023-07-28T13:28:19;109.77;;;31.83;;
7365;SDS011;3723;52.220;8.792;2023-07-28T13:30:46;168.20;;;133.83;;
7365;SDS011;3723;52.220;8.792;2023-07-28T13:33:13;162.67;;;122.37;;
7365;SDS011;3723;52.220;8.792;2023-07-28T13:35:40;516.90;;;475.23;;
7365;SDS011;3723;52.220;8.792;2023-07-28T13:38:08;631.83;;;582.27;;
7365;SDS011;3723;52.220;8.792;2023-07-28T13:40:35;655.60;;;604.90;;
7365;SDS011;3723;52.220;8.792;2023-07-28T13:43:02;541.43;;;497.83;;
7365;SDS011;3723;52.220;8.792;2023-07-28T13:45:29;210.10;;;187.50;;
7365;SDS011;3723;52.220;8.792;2023-07-28T13:47:56;156.20;;;113.37;;
7365;SDS011;3723;52.220;8.792;2023-07-28T13:50:37;106.73;;;18.47;;
7365;SDS011;3723;52.220;8.792;2023-07-28T13:53:06;109.10;;;27.17;;
7365;SDS011;3723;52.220;8.792;2023-07-28T13:55:40;121.67;;;57.43;;
7365;SDS011;3723;52.220;8.792;2023-07-28T13:58:07;115.47;;;44.17;;
7365;SDS011;3723;52.220;8.792;2023-07-28T14:00:34;113.60;;;35.63;;
7365;SDS011;3723;52.220;8.792;2023-07-28T14:03:01;103.10;;;14.40;;
7365;SDS011;3723;52.220;8.792;2023-07-28T14:05:28;110.73;;;26.20;;
7365;SDS011;3723;52.220;8.792;2023-07-28T14:07:55;163.70;;;126.30;;
7365;SDS011;3723;52.220;8.792;2023-07-28T14:10:26;248.73;;;223.73;;
7365;SDS011;3723;52.220;8.792;2023-07-28T14:12:59;583.53;;;537.33;;
7365;SDS011;3723;52.220;8.792;2023-07-28T14:15:30;636.47;;;586.60;;
7365;SDS011;3723;52.220;8.792;2023-07-28T14:17:58;622.43;;;573.53;;
7365;SDS011;3723;52.220;8.792;2023-07-28T14:20:40;624.17;;;575.13;;
7365;SDS011;3723;52.220;8.792;2023-07-28T14:23:25;552.20;;;507.53;;
7365;SDS011;3723;52.220;8.792;2023-07-28T14:25:55;560.97;;;515.47;;
7365;SDS011;3723;52.220;8.792;2023-07-28T14:28:29;596.40;;;549.33;;
7365;SDS011;3723;52.220;8.792;2023-07-28T14:30:56;615.10;;;566.50;;
7365;SDS011;3723;52.220;8.792;2023-07-28T14:33:26;515.53;;;473.57;;
7365;SDS011;3723;52.220;8.792;2023-07-28T14:35:53;524.30;;;481.40;;
7365;SDS011;3723;52.220;8.792;2023-07-28T14:38:20;474.40;;;435.20;;
7365;SDS011;3723;52.220;8.792;2023-07-28T14:40:47;140.47;;;50.23;;
7365;SDS011;3723;52.220;8.792;2023-07-28T14:43:17;159.70;;;68.40;;
7365;SDS011;3723;52.220;8.792;2023-07-28T14:45:45;768.23;;;709.03;;
7365;SDS011;3723;52.220;8.792;2023-07-28T14:48:15;267.83;;;236.87;;
7365;SDS011;3723;52.220;8.792;2023-07-28T14:50:42;194.97;;;141.57;;
7365;SDS011;3723;52.220;8.792;2023-07-28T14:55:56;542.67;;;498.67;;
7365;SDS011;3723;52.220;8.792;2023-07-28T14:58:35;182.57;;;114.10;;
7365;SDS011;3723;52.220;8.792;2023-07-28T15:01:18;153.57;;;69.63;;
7365;SDS011;3723;52.220;8.792;2023-07-28T15:03:54;330.37;;;299.10;;
7365;SDS011;3723;52.220;8.792;2023-07-28T15:06:21;200.43;;;172.30;;
7365;SDS011;3723;52.220;8.792;2023-07-28T15:08:54;169.80;;;133.37;;
7365;SDS011;3723;52.220;8.792;2023-07-28T15:11:23;143.40;;;76.33;;
7365;SDS011;3723;52.220;8.792;2023-07-28T15:13:53;169.10;;;133.00;;
7365;SDS011;3723;52.220;8.792;2023-07-28T15:16:28;394.63;;;360.47;;
7365;SDS011;3723;52.220;8.792;2023-07-28T15:18:55;435.27;;;398.33;;
7365;SDS011;3723;52.220;8.792;2023-07-28T15:21:22;294.90;;;266.73;;
7365;SDS011;3723;52.220;8.792;2023-07-28T15:23:52;551.20;;;506.67;;
7365;SDS011;3723;52.220;8.792;2023-07-28T15:26:20;240.93;;;215.07;;
7365;SDS011;3723;52.220;8.792;2023-07-28T15:28:49;154.83;;;62.70;;
7365;SDS011;3723;52.220;8.792;2023-07-28T15:31:20;169.63;;;88.17;;
7365;SDS011;3723;52.220;8.792;2023-07-28T15:33:49;261.20;;;233.73;;
7365;SDS011;3723;52.220;8.792;2023-07-28T15:36:17;828.90;;;765.10;;
7365;SDS011;3723;52.220;8.792;2023-07-28T15:38:46;791.50;;;730.60;;
7365;SDS011;3723;52.220;8.792;2023-07-28T15:41:13;836.27;;;772.07;;
7365;SDS011;3723;52.220;8.792;2023-07-28T15:43:40;746.13;;;688.70;;